createdAt,value
2019-05-16T00:00:42.536Z,7.60
2019-05-16T00:03:12.597Z,7.60
2019-05-16T00:05:53.391Z,7.50
2019-05-16T00:08:14.272Z,7.50
2019-05-16T00:10:44.270Z,7.50
2019-05-16T00:13:14.272Z,7.40
2019-05-16T00:15:44.310Z,7.40
2019-05-16T00:18:14.344Z,7.30
2019-05-16T00:20:45.167Z,7.30
2019-05-16T00:23:15.104Z,7.30
2019-05-16T00:25:45.198Z,7.20
2019-05-16T00:28:15.227Z,7.20
2019-05-16T00:30:45.129Z,7.10
2019-05-16T00:33:15.370Z,7.10
2019-05-16T00:35:45.368Z,7.10
2019-05-16T00:38:15.379Z,7.00
2019-05-16T00:40:45.511Z,7.00
2019-05-16T00:43:15.508Z,6.90
2019-05-16T00:45:45.503Z,6.90
2019-05-16T00:48:15.505Z,6.80
2019-05-16T00:50:45.507Z,6.80
2019-05-16T00:53:15.558Z,6.80
2019-05-16T00:55:47.823Z,6.70
2019-05-16T00:58:18.923Z,6.70
2019-05-16T01:00:50.288Z,6.60
2019-05-16T01:03:20.849Z,6.60
2019-05-16T01:05:50.868Z,6.50
2019-05-16T01:08:20.751Z,6.50
2019-05-16T01:10:51.515Z,6.50
2019-05-16T01:13:21.932Z,6.40
2019-05-16T01:15:51.944Z,6.40
2019-05-16T01:18:21.871Z,6.40
2019-05-16T01:20:51.875Z,6.30
2019-05-16T01:23:21.885Z,6.30
2019-05-16T01:25:51.807Z,6.20
2019-05-16T01:28:21.811Z,6.20
2019-05-16T01:30:51.840Z,6.20
2019-05-16T01:33:21.763Z,6.20
2019-05-16T01:35:51.755Z,6.10
2019-05-16T01:38:21.699Z,6.00
2019-05-16T01:40:51.703Z,6.00
2019-05-16T01:43:21.756Z,6.00
2019-05-16T01:45:51.770Z,5.90
2019-05-16T01:48:21.821Z,5.80
2019-05-16T01:50:51.744Z,5.80
2019-05-16T01:53:21.700Z,5.80
2019-05-16T01:55:51.676Z,5.70
2019-05-16T01:58:21.643Z,5.70
2019-05-16T02:01:03.117Z,5.60
2019-05-16T02:03:23.529Z,5.50
2019-05-16T02:05:53.564Z,5.50
2019-05-16T02:08:23.880Z,5.50
2019-05-16T02:10:53.871Z,5.40
2019-05-16T02:13:23.910Z,5.40
2019-05-16T02:15:53.947Z,5.30
2019-05-16T02:18:23.799Z,5.30
2019-05-16T02:20:53.819Z,5.30
2019-05-16T02:23:23.885Z,5.20
2019-05-16T02:25:53.979Z,5.20
2019-05-16T02:28:30.253Z,5.10
2019-05-16T02:30:55.603Z,5.10
2019-05-16T02:33:25.571Z,5.10
2019-05-16T02:35:56.064Z,5.10
2019-05-16T02:38:26.148Z,5.00
2019-05-16T02:40:56.292Z,5.60
2019-05-16T02:43:26.763Z,5.00
2019-05-16T02:45:56.878Z,5.00
2019-05-16T02:48:26.987Z,4.90
2019-05-16T02:50:57.003Z,4.90
2019-05-16T02:53:27.030Z,4.90
2019-05-16T02:55:57.198Z,4.90
2019-05-16T02:58:30.486Z,4.90
2019-05-16T03:01:01.923Z,4.90
2019-05-16T03:03:31.695Z,4.90
2019-05-16T03:06:02.849Z,4.90
2019-05-16T03:08:32.999Z,4.90
2019-05-16T03:11:03.239Z,5.00
2019-05-16T03:13:35.313Z,5.00
2019-05-16T03:16:11.741Z,5.00
2019-05-16T03:18:42.564Z,5.10
2019-05-16T03:21:12.604Z,5.10
2019-05-16T03:23:42.527Z,5.10
2019-05-16T03:26:12.500Z,5.10
2019-05-16T03:28:42.536Z,5.10
2019-05-16T03:31:14.982Z,5.20
2019-05-16T03:33:51.949Z,5.20
2019-05-16T03:36:16.507Z,4.60
2019-05-16T03:38:46.673Z,5.20
2019-05-16T03:41:17.048Z,5.20
2019-05-16T03:43:46.965Z,5.30
2019-05-16T03:46:16.905Z,5.30
2019-05-16T03:48:46.834Z,5.30
2019-05-16T03:51:16.839Z,5.30
2019-05-16T03:53:46.682Z,5.30
2019-05-16T03:56:16.695Z,5.40
2019-05-16T03:58:46.954Z,5.40
2019-05-16T04:01:16.978Z,5.40
2019-05-16T04:03:46.900Z,5.40
2019-05-16T04:06:16.944Z,5.40
2019-05-16T04:08:46.993Z,5.40
2019-05-16T04:11:22.178Z,5.40
2019-05-16T04:13:50.829Z,5.50
2019-05-16T04:16:21.079Z,5.50
2019-05-16T04:18:51.653Z,5.50
2019-05-16T04:21:22.208Z,5.50
2019-05-16T04:23:52.380Z,5.50
2019-05-16T04:26:22.333Z,5.50
2019-05-16T04:28:52.377Z,5.50
2019-05-16T04:31:22.459Z,5.50
2019-05-16T04:33:52.454Z,5.50
2019-05-16T04:36:22.528Z,5.60
2019-05-16T04:38:53.108Z,5.60
2019-05-16T04:41:23.244Z,5.60
2019-05-16T04:43:53.252Z,5.60
2019-05-16T04:46:23.259Z,5.60
2019-05-16T04:48:53.439Z,5.60
2019-05-16T04:51:23.428Z,5.70
2019-05-16T04:53:53.395Z,5.70
2019-05-16T04:56:25.238Z,5.70
2019-05-16T04:58:55.185Z,5.80
2019-05-16T05:01:25.178Z,5.80
2019-05-16T05:04:08.774Z,5.80
2019-05-16T05:06:26.870Z,5.90
2019-05-16T05:08:58.961Z,6.00
2019-05-16T05:11:30.600Z,6.00
2019-05-16T05:14:00.972Z,6.10
2019-05-16T05:16:31.158Z,6.20
2019-05-16T05:19:01.144Z,6.40
2019-05-16T05:21:31.501Z,6.40
2019-05-16T05:24:01.533Z,6.50
2019-05-16T05:26:31.468Z,6.60
2019-05-16T05:29:01.491Z,6.80
2019-05-16T05:31:35.247Z,6.90
2019-05-16T05:34:03.261Z,7.00
2019-05-16T05:36:33.288Z,7.10
2019-05-16T05:39:11.718Z,7.20
2019-05-16T05:41:36.597Z,7.30
2019-05-16T05:44:06.653Z,7.40
2019-05-16T05:46:36.665Z,7.40
2019-05-16T05:49:06.694Z,7.50
2019-05-16T05:51:36.662Z,7.60
2019-05-16T05:54:06.759Z,7.70
2019-05-16T05:56:36.794Z,7.80
2019-05-16T05:59:11.119Z,7.90
2019-05-16T06:01:40.673Z,7.90
2019-05-16T06:04:10.703Z,8.00
2019-05-16T06:06:44.770Z,8.10
2019-05-16T06:09:25.305Z,8.20
2019-05-16T06:11:44.399Z,8.30
2019-05-16T06:14:14.459Z,8.30
2019-05-16T06:16:44.520Z,8.30
2019-05-16T06:19:14.658Z,8.30
2019-05-16T06:21:45.491Z,8.40
2019-05-16T06:24:16.285Z,8.40
2019-05-16T06:26:46.447Z,8.40
2019-05-16T06:29:16.453Z,8.50
2019-05-16T06:31:46.620Z,8.60
2019-05-16T06:34:16.737Z,8.60
2019-05-16T06:36:46.766Z,8.70
2019-05-16T06:39:16.806Z,8.80
2019-05-16T06:41:46.782Z,8.90
2019-05-16T06:44:16.927Z,9.00
2019-05-16T06:46:59.972Z,9.10
2019-05-16T06:49:19.692Z,9.20
2019-05-16T06:51:51.548Z,9.40
2019-05-16T06:54:21.463Z,9.50
2019-05-16T06:56:51.423Z,9.60
2019-05-16T06:59:21.535Z,9.70
2019-05-16T07:01:51.499Z,9.70
2019-05-16T07:04:21.474Z,9.80
2019-05-16T07:06:58.604Z,9.90
2019-05-16T07:09:23.307Z,9.90
2019-05-16T07:11:53.524Z,10.00
2019-05-16T07:14:31.500Z,10.00
2019-05-16T07:17:01.716Z,10.10
2019-05-16T07:19:32.075Z,10.10
2019-05-16T07:22:02.203Z,10.20
2019-05-16T07:24:32.314Z,10.30
2019-05-16T07:27:02.323Z,10.30
2019-05-16T07:29:32.351Z,10.40
2019-05-16T07:32:02.412Z,10.40
2019-05-16T07:34:32.664Z,10.50
2019-05-16T07:37:02.709Z,10.50
2019-05-16T07:39:32.759Z,10.60
2019-05-16T07:42:02.725Z,10.70
2019-05-16T07:44:32.752Z,10.80
2019-05-16T07:47:02.796Z,10.90
2019-05-16T07:49:32.739Z,10.90
2019-05-16T07:52:02.892Z,11.00
2019-05-16T07:54:34.636Z,11.00
2019-05-16T07:57:16.157Z,11.10
2019-05-16T07:59:36.356Z,11.20
2019-05-16T08:02:06.369Z,11.20
2019-05-16T08:04:36.323Z,11.30
2019-05-16T08:07:06.375Z,11.30
2019-05-16T08:09:36.494Z,11.40
2019-05-16T08:12:06.468Z,11.40
2019-05-16T08:14:36.552Z,11.40
2019-05-16T08:17:06.583Z,11.40
2019-05-16T08:19:36.560Z,11.50
2019-05-16T08:22:06.803Z,11.50
2019-05-16T08:24:36.907Z,11.50
2019-05-16T08:27:06.985Z,11.60
2019-05-16T08:29:36.974Z,11.60
2019-05-16T08:32:11.172Z,11.70
2019-05-16T08:34:40.856Z,11.70
2019-05-16T08:37:32.826Z,11.80
2019-05-16T08:39:42.413Z,11.90
2019-05-16T08:42:15.513Z,12.00
2019-05-16T08:44:45.637Z,12.00
2019-05-16T08:47:16.083Z,12.10
2019-05-16T08:49:51.864Z,12.10
2019-05-16T08:52:22.397Z,12.10
2019-05-16T08:54:51.207Z,12.10
2019-05-16T08:57:27.542Z,12.20
2019-05-16T08:59:52.927Z,12.20
2019-05-16T09:02:32.278Z,12.30
2019-05-16T09:04:54.674Z,12.30
2019-05-16T09:07:24.628Z,12.40
2019-05-16T09:09:59.838Z,12.30
2019-05-16T09:12:27.812Z,12.20
2019-05-16T09:14:59.366Z,12.20
2019-05-16T09:17:29.840Z,12.20
2019-05-16T09:19:59.909Z,12.20
2019-05-16T09:22:29.931Z,12.20
2019-05-16T09:24:59.959Z,12.10
2019-05-16T09:27:30.040Z,12.10
2019-05-16T09:30:00.159Z,12.20
2019-05-16T09:32:30.287Z,12.20
2019-05-16T09:35:00.628Z,12.20
2019-05-16T09:37:30.696Z,12.20
2019-05-16T09:40:00.923Z,12.30
2019-05-16T09:42:31.220Z,12.40
2019-05-16T09:45:01.345Z,12.50
2019-05-16T09:47:31.468Z,12.50
2019-05-16T09:50:01.512Z,12.60
2019-05-16T09:52:31.732Z,12.70
2019-05-16T09:55:02.014Z,12.70
2019-05-16T09:57:32.273Z,12.70
2019-05-16T10:00:02.442Z,12.80
2019-05-16T10:02:32.477Z,12.90
2019-05-16T10:05:02.655Z,12.90
2019-05-16T10:07:32.962Z,13.00
2019-05-16T10:10:03.143Z,13.10
2019-05-16T10:12:33.249Z,13.10
2019-05-16T10:15:03.331Z,13.20
2019-05-16T10:17:33.418Z,13.20
2019-05-16T10:20:03.612Z,13.10
2019-05-16T10:22:33.553Z,13.10
2019-05-16T10:25:03.706Z,13.10
2019-05-16T10:27:33.689Z,13.10
2019-05-16T10:30:03.771Z,13.10
2019-05-16T10:32:33.806Z,13.10
2019-05-16T10:35:03.979Z,13.20
2019-05-16T10:37:34.126Z,13.20
2019-05-16T10:40:07.134Z,13.20
2019-05-16T10:42:37.907Z,13.20
2019-05-16T10:45:09.055Z,13.10
2019-05-16T10:47:39.104Z,13.10
2019-05-16T10:50:09.642Z,13.10
2019-05-16T10:52:39.683Z,13.30
2019-05-16T10:55:09.876Z,13.40
2019-05-16T10:57:40.147Z,13.50
2019-05-16T11:00:18.297Z,13.70
2019-05-16T11:02:42.819Z,13.80
2019-05-16T11:05:27.040Z,13.90
2019-05-16T11:07:48.560Z,13.90
2019-05-16T11:10:19.281Z,14.00
2019-05-16T11:12:54.110Z,13.90
2019-05-16T11:15:21.096Z,13.90
2019-05-16T11:17:51.231Z,13.90
2019-05-16T11:20:21.472Z,13.90
2019-05-16T11:22:51.496Z,14.00
2019-05-16T11:25:28.786Z,14.00
2019-05-16T11:27:53.465Z,14.00
2019-05-16T11:30:23.843Z,14.00
2019-05-16T11:32:53.923Z,14.00
2019-05-16T11:35:24.043Z,14.00
2019-05-16T11:37:54.069Z,13.90
2019-05-16T11:40:24.176Z,13.90
2019-05-16T11:43:06.532Z,13.90
2019-05-16T11:45:27.207Z,13.80
2019-05-16T11:47:57.523Z,13.80
2019-05-16T11:50:28.148Z,13.70
2019-05-16T11:52:58.171Z,13.70
2019-05-16T11:55:33.938Z,13.50
2019-05-16T11:57:59.960Z,13.40
2019-05-16T12:00:30.773Z,13.30
2019-05-16T12:03:00.916Z,13.30
2019-05-16T12:05:31.070Z,13.20
2019-05-16T12:08:01.119Z,13.20
2019-05-16T12:10:31.261Z,13.20
2019-05-16T12:13:01.287Z,13.20
2019-05-16T12:15:31.662Z,13.30
2019-05-16T12:18:05.209Z,13.30
2019-05-16T12:20:33.546Z,13.30
2019-05-16T12:23:03.650Z,13.20
2019-05-16T12:25:33.752Z,13.20
2019-05-16T12:28:03.978Z,13.20
2019-05-16T12:30:34.180Z,13.20
2019-05-16T12:33:04.319Z,13.30
2019-05-16T12:35:36.685Z,13.20
2019-05-16T12:38:08.143Z,13.30
2019-05-16T12:40:37.940Z,13.40
2019-05-16T12:43:08.053Z,13.50
2019-05-16T12:45:38.927Z,13.70
2019-05-16T12:48:10.691Z,13.70
2019-05-16T12:50:40.806Z,13.80
2019-05-16T12:53:10.821Z,14.00
2019-05-16T12:55:40.981Z,14.00
2019-05-16T12:58:13.282Z,14.00
2019-05-16T13:00:44.187Z,14.10
2019-05-16T13:03:14.778Z,14.20
2019-05-16T13:05:47.792Z,14.20
2019-05-16T13:08:17.973Z,14.30
2019-05-16T13:10:48.757Z,14.40
2019-05-16T13:13:19.103Z,14.40
2019-05-16T13:15:49.594Z,14.50
2019-05-16T13:18:19.904Z,14.60
2019-05-16T13:20:50.503Z,14.60
2019-05-16T13:23:21.027Z,14.70
2019-05-16T13:25:51.392Z,14.70
2019-05-16T13:28:21.780Z,14.80
2019-05-16T13:30:51.952Z,14.80
2019-05-16T13:33:22.345Z,14.80
2019-05-16T13:35:52.974Z,14.90
2019-05-16T13:38:23.564Z,15.00
2019-05-16T13:40:53.899Z,15.00
2019-05-16T13:43:26.791Z,15.10
2019-05-16T13:45:57.671Z,15.10
2019-05-16T13:48:29.336Z,15.20
2019-05-16T13:51:10.508Z,15.20
2019-05-16T13:53:31.368Z,15.30
2019-05-16T13:56:01.808Z,15.50
2019-05-16T13:58:32.082Z,15.70
2019-05-16T14:01:02.792Z,15.80
2019-05-16T14:03:33.445Z,15.90
2019-05-16T14:06:06.989Z,16.00
2019-05-16T14:08:37.295Z,16.00
2019-05-16T14:11:10.465Z,16.00
2019-05-16T14:13:39.628Z,15.90
2019-05-16T14:16:10.037Z,16.00
2019-05-16T14:18:40.210Z,16.00
2019-05-16T14:21:10.304Z,15.90
2019-05-16T14:23:40.926Z,15.90
2019-05-16T14:26:11.070Z,15.90
2019-05-16T14:28:44.453Z,15.90
2019-05-16T14:31:13.111Z,15.90
2019-05-16T14:33:43.880Z,15.90
2019-05-16T14:36:14.355Z,15.90
2019-05-16T14:38:46.870Z,15.80
2019-05-16T14:41:17.692Z,15.70
2019-05-16T14:43:47.847Z,15.70
2019-05-16T14:46:18.558Z,15.70
2019-05-16T14:48:48.783Z,15.80
2019-05-16T14:51:19.113Z,15.80
2019-05-16T14:53:49.250Z,15.80
2019-05-16T14:56:19.338Z,15.80
2019-05-16T14:58:49.408Z,15.80
2019-05-16T15:01:19.447Z,15.80
2019-05-16T15:03:49.511Z,15.80
2019-05-16T15:06:19.696Z,15.80
2019-05-16T15:08:49.733Z,15.80
2019-05-16T15:11:19.800Z,15.70
2019-05-16T15:13:49.930Z,15.80
2019-05-16T15:16:20.182Z,15.80
2019-05-16T15:18:50.305Z,15.80
2019-05-16T15:21:20.654Z,15.70
2019-05-16T15:23:51.057Z,15.70
2019-05-16T15:26:21.150Z,15.60
2019-05-16T15:28:51.445Z,15.50
2019-05-16T15:31:21.484Z,15.50
2019-05-16T15:33:51.821Z,15.40
2019-05-16T15:36:21.905Z,15.40
2019-05-16T15:38:51.980Z,15.30
2019-05-16T15:41:22.042Z,15.30
2019-05-16T15:43:52.238Z,15.20
2019-05-16T15:46:22.388Z,15.20
2019-05-16T15:48:52.671Z,15.10
2019-05-16T15:51:23.355Z,15.10
2019-05-16T15:53:53.375Z,15.10
2019-05-16T15:56:27.093Z,15.00
2019-05-16T15:58:57.348Z,15.00
2019-05-16T16:01:27.429Z,14.90
2019-05-16T16:03:57.809Z,14.80
2019-05-16T16:06:28.659Z,14.70
2019-05-16T16:08:58.782Z,14.60
2019-05-16T16:11:29.134Z,14.60
2019-05-16T16:13:59.206Z,14.50
2019-05-16T16:16:29.475Z,14.40
2019-05-16T16:18:59.600Z,14.40
2019-05-16T16:21:29.632Z,14.30
2019-05-16T16:23:59.972Z,14.30
2019-05-16T16:26:30.028Z,14.30
2019-05-16T16:29:00.484Z,14.30
2019-05-16T16:31:30.573Z,14.30
2019-05-16T16:34:00.653Z,14.20
2019-05-16T16:36:30.758Z,14.20
2019-05-16T16:39:03.381Z,14.20
2019-05-16T16:41:33.431Z,14.10
2019-05-16T16:44:03.595Z,14.10
2019-05-16T16:46:33.719Z,14.10
2019-05-16T16:49:03.863Z,14.10
2019-05-16T16:51:34.206Z,14.10
2019-05-16T16:54:04.263Z,14.10
2019-05-16T16:56:36.845Z,14.00
2019-05-16T16:59:06.516Z,14.00
2019-05-16T17:01:37.418Z,13.90
2019-05-16T17:04:07.651Z,13.90
2019-05-16T17:06:37.748Z,14.00
2019-05-16T17:09:10.617Z,14.20
2019-05-16T17:11:46.343Z,14.40
2019-05-16T17:14:17.395Z,14.70
2019-05-16T17:16:47.669Z,14.90
2019-05-16T17:19:17.758Z,14.90
2019-05-16T17:22:02.086Z,15.00
2019-05-16T17:24:19.612Z,15.40
2019-05-16T17:26:50.092Z,15.80
2019-05-16T17:29:20.183Z,15.90
2019-05-16T17:31:57.445Z,15.70
2019-05-16T17:34:26.723Z,15.40
2019-05-16T17:36:57.216Z,15.20
2019-05-16T17:39:27.759Z,15.00
2019-05-16T17:41:58.563Z,14.90
2019-05-16T17:44:28.605Z,14.70
2019-05-16T17:46:58.824Z,14.60
2019-05-16T17:49:28.883Z,14.50
2019-05-16T17:51:59.075Z,14.40
2019-05-16T17:54:29.207Z,14.30
2019-05-16T17:56:59.258Z,14.10
2019-05-16T17:59:29.292Z,14.10
2019-05-16T18:01:59.334Z,14.00
2019-05-16T18:04:29.714Z,13.90
2019-05-16T18:06:59.757Z,13.70
2019-05-16T18:09:29.861Z,13.60
2019-05-16T18:11:59.822Z,13.50
2019-05-16T18:14:29.802Z,13.30
2019-05-16T18:17:02.210Z,13.20
2019-05-16T18:19:31.641Z,13.20
2019-05-16T18:22:02.009Z,13.10
2019-05-16T18:24:32.171Z,13.00
2019-05-16T18:27:02.449Z,12.90
2019-05-16T18:29:32.490Z,12.80
2019-05-16T18:32:02.506Z,12.80
2019-05-16T18:34:32.648Z,12.70
2019-05-16T18:37:02.643Z,12.70
2019-05-16T18:39:32.775Z,12.60
2019-05-16T18:42:02.897Z,12.60
2019-05-16T18:44:32.837Z,12.50
2019-05-16T18:47:07.759Z,12.40
2019-05-16T18:49:36.776Z,12.40
2019-05-16T18:52:06.693Z,12.30
2019-05-16T18:54:37.505Z,12.30
2019-05-16T18:57:07.991Z,12.20
2019-05-16T18:59:38.146Z,12.20
2019-05-16T19:02:10.414Z,12.20
2019-05-16T19:04:40.199Z,12.20
2019-05-16T19:07:10.351Z,12.10
2019-05-16T19:09:40.427Z,12.10
2019-05-16T19:12:10.699Z,12.10
2019-05-16T19:14:40.788Z,12.00
2019-05-16T19:17:21.049Z,12.00
2019-05-16T19:19:42.554Z,12.00
2019-05-16T19:22:12.535Z,12.00
2019-05-16T19:24:42.853Z,11.90
2019-05-16T19:27:13.027Z,11.90
2019-05-16T19:29:43.439Z,11.80
2019-05-16T19:32:13.480Z,11.80
2019-05-16T19:34:43.556Z,11.80
2019-05-16T19:37:13.493Z,11.70
2019-05-16T19:39:43.546Z,11.70
2019-05-16T19:42:13.595Z,11.70
2019-05-16T19:44:43.547Z,11.60
2019-05-16T19:47:13.497Z,11.60
2019-05-16T19:49:43.530Z,11.60
2019-05-16T19:52:13.499Z,11.60
2019-05-16T19:54:43.451Z,11.50
2019-05-16T19:57:13.415Z,11.50
2019-05-16T19:59:43.428Z,11.50
2019-05-16T20:02:13.455Z,11.50
2019-05-16T20:04:43.407Z,11.50
2019-05-16T20:07:13.436Z,11.50
2019-05-16T20:09:43.551Z,11.50
2019-05-16T20:12:13.588Z,11.50
2019-05-16T20:14:43.679Z,11.50
2019-05-16T20:17:13.762Z,11.50
2019-05-16T20:19:43.730Z,11.50
2019-05-16T20:22:13.791Z,11.40
2019-05-16T20:24:43.871Z,11.50
2019-05-16T20:27:13.899Z,11.50
2019-05-16T20:29:43.822Z,11.50
2019-05-16T20:32:13.815Z,11.50
2019-05-16T20:34:43.882Z,11.40
2019-05-16T20:37:13.995Z,11.40
2019-05-16T20:39:43.958Z,11.40
2019-05-16T20:42:16.918Z,11.40
2019-05-16T20:44:46.835Z,11.40
2019-05-16T20:47:18.079Z,11.40
2019-05-16T20:49:50.599Z,11.30
2019-05-16T20:52:19.820Z,11.30
2019-05-16T20:54:50.014Z,11.30
2019-05-16T20:57:20.269Z,11.30
2019-05-16T20:59:50.466Z,11.30
2019-05-16T21:02:20.618Z,11.20
2019-05-16T21:04:50.753Z,11.20
2019-05-16T21:07:21.009Z,11.20
2019-05-16T21:09:51.260Z,11.20
2019-05-16T21:12:21.367Z,11.20
2019-05-16T21:14:51.442Z,11.20
2019-05-16T21:17:21.420Z,11.20
2019-05-16T21:19:51.379Z,11.10
2019-05-16T21:22:21.646Z,11.10
2019-05-16T21:24:51.919Z,11.10
2019-05-16T21:27:22.011Z,11.00
2019-05-16T21:29:52.141Z,11.00
2019-05-16T21:32:22.167Z,10.90
2019-05-16T21:34:52.204Z,10.90
2019-05-16T21:37:22.231Z,10.80
2019-05-16T21:39:52.296Z,10.80
2019-05-16T21:42:22.283Z,10.70
2019-05-16T21:44:52.333Z,10.70
2019-05-16T21:47:22.368Z,10.70
2019-05-16T21:49:52.417Z,10.60
2019-05-16T21:52:22.462Z,10.60
2019-05-16T21:54:52.530Z,10.60
2019-05-16T21:57:22.563Z,10.50
2019-05-16T21:59:52.418Z,10.50
2019-05-16T22:02:22.435Z,10.40
2019-05-16T22:04:52.466Z,10.40
2019-05-16T22:07:32.783Z,10.40
2019-05-16T22:09:54.155Z,10.30
2019-05-16T22:12:26.448Z,10.30
2019-05-16T22:14:57.166Z,10.20
2019-05-16T22:17:27.670Z,10.20
2019-05-16T22:19:57.991Z,10.10
2019-05-16T22:22:29.998Z,10.10
2019-05-16T22:24:59.759Z,10.00
2019-05-16T22:27:29.807Z,10.00
2019-05-16T22:29:59.798Z,9.90
2019-05-16T22:32:29.819Z,9.90
2019-05-16T22:35:00.103Z,9.80
2019-05-16T22:37:30.267Z,9.80
2019-05-16T22:40:00.216Z,9.70
2019-05-16T22:42:30.168Z,9.70
2019-05-16T22:45:00.174Z,9.60
2019-05-16T22:47:30.198Z,9.60
2019-05-16T22:50:00.235Z,9.50
2019-05-16T22:52:30.263Z,9.50
2019-05-16T22:55:00.211Z,9.50
2019-05-16T22:57:30.168Z,9.50
2019-05-16T23:00:00.140Z,9.50
2019-05-16T23:02:30.160Z,9.50
2019-05-16T23:05:00.218Z,9.50
2019-05-16T23:07:31.331Z,9.50
2019-05-16T23:10:01.326Z,9.40
2019-05-16T23:12:31.384Z,9.40
2019-05-16T23:15:01.397Z,9.40
2019-05-16T23:17:31.514Z,9.40
2019-05-16T23:20:01.488Z,9.30
2019-05-16T23:22:31.642Z,9.30
2019-05-16T23:25:01.730Z,9.30
2019-05-16T23:27:31.695Z,9.30
2019-05-16T23:30:01.728Z,9.30
2019-05-16T23:32:31.689Z,9.30
2019-05-16T23:35:01.807Z,9.30
2019-05-16T23:37:31.745Z,9.20
2019-05-16T23:40:01.790Z,9.20
2019-05-16T23:42:31.759Z,9.20
2019-05-16T23:45:01.809Z,9.20
2019-05-16T23:47:31.839Z,9.20
2019-05-16T23:50:01.933Z,9.10
2019-05-16T23:52:32.224Z,9.10
2019-05-16T23:55:02.248Z,9.10
2019-05-16T23:57:32.290Z,9.10
